sensor_id;sensor_type;location;lat;lon;timestamp;pressure;altitude;pressure_sealevel;temperature;humidity
59487;BME280;45298;54.918;73.504;2023-04-29T00:02:37;100283.03;;;1.39;47.25
59487;BME280;45298;54.918;73.504;2023-04-29T00:05:06;100345.00;;;1.76;47.25
59487;BME280;45298;54.918;73.504;2023-04-29T00:07:36;100363.19;;;1.83;47.25
59487;BME280;45298;54.918;73.504;2023-04-29T00:10:05;100369.09;;;1.91;47.10
59487;BME280;45298;54.918;73.504;2023-04-29T00:12:34;100379.38;;;2.00;47.23
59487;BME280;45298;54.918;73.504;2023-04-29T00:15:03;100374.19;;;1.99;47.41
59487;BME280;45298;54.918;73.504;2023-04-29T00:17:34;100362.16;;;1.90;47.41
59487;BME280;45298;54.918;73.504;2023-04-29T00:20:08;100384.69;;;1.97;47.47
59487;BME280;45298;54.918;73.504;2023-04-29T00:22:40;100382.97;;;1.96;47.53
59487;BME280;45298;54.918;73.504;2023-04-29T00:25:09;100365.59;;;1.92;47.65
59487;BME280;45298;54.918;73.504;2023-04-29T00:27:45;100364.81;;;1.88;47.76
59487;BME280;45298;54.918;73.504;2023-04-29T00:30:17;100364.16;;;1.78;47.86
59487;BME280;45298;54.918;73.504;2023-04-29T00:32:46;100368.47;;;1.79;48.07
59487;BME280;45298;54.918;73.504;2023-04-29T00:35:15;100320.44;;;1.41;48.00
59487;BME280;45298;54.918;73.504;2023-04-29T00:37:43;100382.47;;;1.77;48.32
59487;BME280;45298;54.918;73.504;2023-04-29T00:40:12;100377.47;;;1.66;48.44
59487;BME280;45298;54.918;73.504;2023-04-29T00:42:42;100412.75;;;1.89;48.44
59487;BME280;45298;54.918;73.504;2023-04-29T00:45:11;100393.81;;;1.77;48.45
59487;BME280;45298;54.918;73.504;2023-04-29T00:47:40;100438.75;;;1.96;48.54
59487;BME280;45298;54.918;73.504;2023-04-29T00:50:09;100407.66;;;1.83;48.48
59487;BME280;45298;54.918;73.504;2023-04-29T00:52:39;100443.97;;;1.98;48.42
59487;BME280;45298;54.918;73.504;2023-04-29T00:55:08;100387.16;;;1.59;48.77
59487;BME280;45298;54.918;73.504;2023-04-29T00:57:40;100437.09;;;1.92;48.65
59487;BME280;45298;54.918;73.504;2023-04-29T01:00:10;100451.72;;;2.03;48.77
59487;BME280;45298;54.918;73.504;2023-04-29T01:02:39;100459.34;;;2.14;48.41
59487;BME280;45298;54.918;73.504;2023-04-29T01:05:11;100450.66;;;2.13;48.83
59487;BME280;45298;54.918;73.504;2023-04-29T01:08:11;100471.28;;;2.27;48.71
59487;BME280;45298;54.918;73.504;2023-04-29T01:10:51;100449.59;;;2.22;48.64
59487;BME280;45298;54.918;73.504;2023-04-29T01:13:36;100464.13;;;2.35;48.64
59487;BME280;45298;54.918;73.504;2023-04-29T01:16:22;100467.59;;;2.37;48.88
59487;BME280;45298;54.918;73.504;2023-04-29T01:18:57;100464.06;;;2.38;48.61
59487;BME280;45298;54.918;73.504;2023-04-29T01:21:30;100448.72;;;2.62;48.05
59487;BME280;45298;54.918;73.504;2023-04-29T01:23:59;100434.78;;;3.99;45.63
59487;BME280;45298;54.918;73.504;2023-04-29T01:26:32;100428.94;;;5.31;43.09
59487;BME280;45298;54.918;73.504;2023-04-29T01:29:39;100466.06;;;6.47;41.45
59487;BME280;45298;54.918;73.504;2023-04-29T01:32:23;100435.91;;;6.99;39.98
59487;BME280;45298;54.918;73.504;2023-04-29T01:35:51;100435.78;;;7.24;38.45
59487;BME280;45298;54.918;73.504;2023-04-29T01:40:49;100446.16;;;7.49;37.58
59487;BME280;45298;54.918;73.504;2023-04-29T01:43:28;100472.94;;;7.81;37.42
59487;BME280;45298;54.918;73.504;2023-04-29T01:46:01;100469.16;;;7.87;36.72
59487;BME280;45298;54.918;73.504;2023-04-29T01:48:32;100328.88;;;6.94;36.62
59487;BME280;45298;54.918;73.504;2023-04-29T01:51:04;100459.38;;;7.89;36.48
59487;BME280;45298;54.918;73.504;2023-04-29T01:53:34;100458.66;;;8.06;36.81
59487;BME280;45298;54.918;73.504;2023-04-29T01:56:03;100444.56;;;7.86;36.76
59487;BME280;45298;54.918;73.504;2023-04-29T01:58:43;100476.75;;;7.95;36.42
59487;BME280;45298;54.918;73.504;2023-04-29T02:01:47;100386.63;;;7.42;36.30
59487;BME280;45298;54.918;73.504;2023-04-29T02:04:16;100444.16;;;7.75;36.90
59487;BME280;45298;54.918;73.504;2023-04-29T02:06:45;100443.09;;;7.79;36.96
59487;BME280;45298;54.918;73.504;2023-04-29T02:09:16;100457.22;;;7.78;36.66
59487;BME280;45298;54.918;73.504;2023-04-29T02:11:51;100395.59;;;7.17;37.36
59487;BME280;45298;54.918;73.504;2023-04-29T02:14:20;100452.97;;;7.12;37.21
59487;BME280;45298;54.918;73.504;2023-04-29T02:16:50;100467.88;;;7.13;37.62
59487;BME280;45298;54.918;73.504;2023-04-29T02:19:19;100468.06;;;7.08;38.25
59487;BME280;45298;54.918;73.504;2023-04-29T02:21:50;100470.25;;;7.19;38.24
59487;BME280;45298;54.918;73.504;2023-04-29T02:24:19;100461.34;;;7.01;38.37
59487;BME280;45298;54.918;73.504;2023-04-29T02:26:48;100495.09;;;7.36;38.06
59487;BME280;45298;54.918;73.504;2023-04-29T02:29:17;100485.75;;;7.27;38.03
59487;BME280;45298;54.918;73.504;2023-04-29T02:31:46;100481.31;;;7.07;38.50
59487;BME280;45298;54.918;73.504;2023-04-29T02:34:15;100410.41;;;6.77;38.68
59487;BME280;45298;54.918;73.504;2023-04-29T02:36:44;100492.72;;;7.30;38.44
59487;BME280;45298;54.918;73.504;2023-04-29T02:39:13;100422.69;;;6.78;38.88
59487;BME280;45298;54.918;73.504;2023-04-29T02:41:42;100475.59;;;7.18;38.16
59487;BME280;45298;54.918;73.504;2023-04-29T02:44:10;100485.34;;;7.16;38.29
59487;BME280;45298;54.918;73.504;2023-04-29T02:46:39;100480.91;;;6.95;38.53
59487;BME280;45298;54.918;73.504;2023-04-29T02:49:12;100466.47;;;6.82;38.93
59487;BME280;45298;54.918;73.504;2023-04-29T02:51:42;100490.88;;;6.65;39.14
59487;BME280;45298;54.918;73.504;2023-04-29T02:54:11;100406.19;;;6.04;38.99
59487;BME280;45298;54.918;73.504;2023-04-29T02:56:40;100471.56;;;6.41;39.42
59487;BME280;45298;54.918;73.504;2023-04-29T02:59:11;100476.28;;;6.56;39.16
59487;BME280;45298;54.918;73.504;2023-04-29T03:01:40;100469.28;;;6.55;39.07
59487;BME280;45298;54.918;73.504;2023-04-29T03:04:10;100480.44;;;6.62;38.99
59487;BME280;45298;54.918;73.504;2023-04-29T03:06:39;100466.41;;;6.38;38.57
59487;BME280;45298;54.918;73.504;2023-04-29T03:09:13;100471.06;;;6.31;38.45
59487;BME280;45298;54.918;73.504;2023-04-29T03:11:45;100453.72;;;6.25;38.12
59487;BME280;45298;54.918;73.504;2023-04-29T03:14:14;100510.06;;;6.69;37.79
59487;BME280;45298;54.918;73.504;2023-04-29T03:16:43;100514.53;;;6.67;37.79
59487;BME280;45298;54.918;73.504;2023-04-29T03:19:12;100497.91;;;6.64;37.89
59487;BME280;45298;54.918;73.504;2023-04-29T03:21:40;100515.53;;;6.86;37.49
59487;BME280;45298;54.918;73.504;2023-04-29T03:24:09;100503.25;;;6.63;37.53
59487;BME280;45298;54.918;73.504;2023-04-29T03:26:38;100505.78;;;6.88;37.37
59487;BME280;45298;54.918;73.504;2023-04-29T03:29:07;100497.88;;;7.10;36.98
59487;BME280;45298;54.918;73.504;2023-04-29T03:31:36;100480.56;;;7.25;36.53
59487;BME280;45298;54.918;73.504;2023-04-29T03:34:05;100513.06;;;7.26;36.44
59487;BME280;45298;54.918;73.504;2023-04-29T03:36:37;100469.91;;;6.84;36.17
59487;BME280;45298;54.918;73.504;2023-04-29T03:39:10;100503.41;;;7.04;36.45
59487;BME280;45298;54.918;73.504;2023-04-29T03:41:39;100489.06;;;6.89;35.80
59487;BME280;45298;54.918;73.504;2023-04-29T03:44:08;100496.03;;;6.90;35.78
59487;BME280;45298;54.918;73.504;2023-04-29T03:46:41;100502.66;;;7.01;36.07
59487;BME280;45298;54.918;73.504;2023-04-29T03:49:10;100469.78;;;6.87;35.97
59487;BME280;45298;54.918;73.504;2023-04-29T03:51:41;100491.31;;;7.21;35.40
59487;BME280;45298;54.918;73.504;2023-04-29T03:54:14;100504.59;;;7.40;35.70
59487;BME280;45298;54.918;73.504;2023-04-29T03:56:43;100414.56;;;7.05;35.34
59487;BME280;45298;54.918;73.504;2023-04-29T03:59:13;100471.56;;;7.52;34.85
59487;BME280;45298;54.918;73.504;2023-04-29T04:01:42;100485.28;;;7.60;34.52
59487;BME280;45298;54.918;73.504;2023-04-29T04:04:10;100419.34;;;7.17;34.27
59487;BME280;45298;54.918;73.504;2023-04-29T04:06:44;100481.97;;;7.55;34.08
59487;BME280;45298;54.918;73.504;2023-04-29T04:09:21;100489.81;;;7.98;33.92
59487;BME280;45298;54.918;73.504;2023-04-29T04:11:50;100486.00;;;8.24;33.51
59487;BME280;45298;54.918;73.504;2023-04-29T04:14:19;100487.88;;;8.22;33.10
59487;BME280;45298;54.918;73.504;2023-04-29T04:16:50;100467.59;;;8.04;33.58
59487;BME280;45298;54.918;73.504;2023-04-29T04:19:19;100423.31;;;7.48;33.57
59487;BME280;45298;54.918;73.504;2023-04-29T04:21:48;100413.94;;;7.62;33.53
59487;BME280;45298;54.918;73.504;2023-04-29T04:24:17;100420.81;;;7.66;33.50
59487;BME280;45298;54.918;73.504;2023-04-29T04:26:46;100474.72;;;8.01;33.20
59487;BME280;45298;54.918;73.504;2023-04-29T04:29:21;100458.31;;;8.14;32.87
59487;BME280;45298;54.918;73.504;2023-04-29T04:31:58;100477.75;;;8.32;33.18
59487;BME280;45298;54.918;73.504;2023-04-29T04:34:28;100492.53;;;8.36;32.70
59487;BME280;45298;54.918;73.504;2023-04-29T04:36:59;100464.53;;;7.92;32.36
59487;BME280;45298;54.918;73.504;2023-04-29T04:39:30;100442.25;;;7.79;33.18
59487;BME280;45298;54.918;73.504;2023-04-29T04:41:59;100404.81;;;7.90;32.88
59487;BME280;45298;54.918;73.504;2023-04-29T04:44:31;100479.63;;;8.30;32.64
59487;BME280;45298;54.918;73.504;2023-04-29T04:47:06;100462.63;;;8.55;31.44
59487;BME280;45298;54.918;73.504;2023-04-29T04:49:55;100450.19;;;8.57;30.94
59487;BME280;45298;54.918;73.504;2023-04-29T04:52:24;100406.88;;;8.40;30.92
59487;BME280;45298;54.918;73.504;2023-04-29T04:55:02;100459.38;;;9.23;31.35
59487;BME280;45298;54.918;73.504;2023-04-29T04:57:34;100458.69;;;9.55;29.83
59487;BME280;45298;54.918;73.504;2023-04-29T05:00:03;100446.84;;;9.95;29.56
59487;BME280;45298;54.918;73.504;2023-04-29T05:02:32;100442.38;;;10.13;29.20
59487;BME280;45298;54.918;73.504;2023-04-29T05:05:01;100449.16;;;10.35;28.70
59487;BME280;45298;54.918;73.504;2023-04-29T05:07:34;100417.31;;;10.19;28.09
59487;BME280;45298;54.918;73.504;2023-04-29T05:10:05;100461.50;;;10.52;28.41
59487;BME280;45298;54.918;73.504;2023-04-29T05:12:43;100489.09;;;10.66;28.61
59487;BME280;45298;54.918;73.504;2023-04-29T05:15:12;100470.50;;;10.16;28.10
59487;BME280;45298;54.918;73.504;2023-04-29T05:17:44;100470.50;;;10.16;28.00
59487;BME280;45298;54.918;73.504;2023-04-29T05:20:13;100473.34;;;10.63;28.05
59487;BME280;45298;54.918;73.504;2023-04-29T05:22:43;100423.19;;;10.42;27.20
59487;BME280;45298;54.918;73.504;2023-04-29T05:25:13;100482.41;;;10.75;26.54
59487;BME280;45298;54.918;73.504;2023-04-29T05:27:42;100455.19;;;10.87;25.91
59487;BME280;45298;54.918;73.504;2023-04-29T05:30:15;100470.06;;;10.57;25.47
59487;BME280;45298;54.918;73.504;2023-04-29T05:32:46;100427.66;;;9.74;25.98
59487;BME280;45298;54.918;73.504;2023-04-29T05:35:18;100451.88;;;9.84;26.18
59487;BME280;45298;54.918;73.504;2023-04-29T05:37:47;100450.97;;;9.50;26.09
59487;BME280;45298;54.918;73.504;2023-04-29T05:40:42;100386.84;;;9.10;26.34
59487;BME280;45298;54.918;73.504;2023-04-29T05:43:37;100459.28;;;9.42;26.78
59487;BME280;45298;54.918;73.504;2023-04-29T05:46:06;100409.63;;;9.30;26.12
59487;BME280;45298;54.918;73.504;2023-04-29T05:48:35;100411.78;;;9.57;26.55
59487;BME280;45298;54.918;73.504;2023-04-29T05:51:04;100426.25;;;9.67;25.85
59487;BME280;45298;54.918;73.504;2023-04-29T05:53:34;100432.75;;;10.28;26.42
59487;BME280;45298;54.918;73.504;2023-04-29T05:56:08;100436.13;;;10.31;25.78
59487;BME280;45298;54.918;73.504;2023-04-29T05:58:40;100440.31;;;10.03;26.43
59487;BME280;45298;54.918;73.504;2023-04-29T06:01:10;100456.50;;;9.96;26.08
59487;BME280;45298;54.918;73.504;2023-04-29T06:03:39;100440.09;;;9.90;26.18
59487;BME280;45298;54.918;73.504;2023-04-29T06:06:22;100425.34;;;10.02;26.38
59487;BME280;45298;54.918;73.504;2023-04-29T06:09:07;100417.72;;;9.95;25.78
59487;BME280;45298;54.918;73.504;2023-04-29T06:11:51;100447.41;;;10.52;25.62
59487;BME280;45298;54.918;73.504;2023-04-29T06:14:20;100430.19;;;10.91;25.74
59487;BME280;45298;54.918;73.504;2023-04-29T06:16:53;100420.91;;;10.98;25.69
59487;BME280;45298;54.918;73.504;2023-04-29T06:19:23;100411.13;;;11.15;25.45
59487;BME280;45298;54.918;73.504;2023-04-29T06:21:52;100432.41;;;11.74;25.61
59487;BME280;45298;54.918;73.504;2023-04-29T06:24:21;100435.69;;;11.63;25.20
59487;BME280;45298;54.918;73.504;2023-04-29T06:26:50;100423.41;;;11.32;25.07
59487;BME280;45298;54.918;73.504;2023-04-29T06:29:19;100413.38;;;11.07;25.37
59487;BME280;45298;54.918;73.504;2023-04-29T06:31:48;100418.09;;;11.32;24.99
59487;BME280;45298;54.918;73.504;2023-04-29T06:34:17;100436.78;;;11.30;24.94
59487;BME280;45298;54.918;73.504;2023-04-29T06:37:07;100420.78;;;10.85;25.04
59487;BME280;45298;54.918;73.504;2023-04-29T06:39:51;100414.63;;;10.69;25.28
59487;BME280;45298;54.918;73.504;2023-04-29T06:42:39;100432.81;;;11.07;25.17
59487;BME280;45298;54.918;73.504;2023-04-29T06:45:27;100426.19;;;11.59;25.11
59487;BME280;45298;54.918;73.504;2023-04-29T06:48:06;100411.28;;;11.42;24.99
59487;BME280;45298;54.918;73.504;2023-04-29T06:50:38;100408.59;;;11.28;24.52
59487;BME280;45298;54.918;73.504;2023-04-29T06:53:08;100434.09;;;11.61;24.08
59487;BME280;45298;54.918;73.504;2023-04-29T06:55:37;100429.75;;;11.74;24.94
59487;BME280;45298;54.918;73.504;2023-04-29T06:58:06;100416.88;;;12.12;24.13
59487;BME280;45298;54.918;73.504;2023-04-29T07:00:35;100394.81;;;12.38;24.35
59487;BME280;45298;54.918;73.504;2023-04-29T07:03:08;100403.03;;;12.48;23.18
59487;BME280;45298;54.918;73.504;2023-04-29T07:05:39;100424.97;;;12.94;23.60
59487;BME280;45298;54.918;73.504;2023-04-29T07:08:09;100371.00;;;12.77;23.97
59487;BME280;45298;54.918;73.504;2023-04-29T07:10:41;100420.00;;;13.15;22.90
59487;BME280;45298;54.918;73.504;2023-04-29T07:13:10;100409.53;;;12.72;23.85
59487;BME280;45298;54.918;73.504;2023-04-29T07:15:39;100399.09;;;12.27;23.35
59487;BME280;45298;54.918;73.504;2023-04-29T07:18:08;100380.38;;;12.28;24.28
59487;BME280;45298;54.918;73.504;2023-04-29T07:20:39;100396.19;;;12.44;24.21
59487;BME280;45298;54.918;73.504;2023-04-29T07:23:07;100387.91;;;12.63;23.80
59487;BME280;45298;54.918;73.504;2023-04-29T07:25:37;100396.91;;;12.61;23.08
59487;BME280;45298;54.918;73.504;2023-04-29T07:28:06;100412.22;;;12.57;23.58
59487;BME280;45298;54.918;73.504;2023-04-29T07:30:36;100404.28;;;12.43;23.31
59487;BME280;45298;54.918;73.504;2023-04-29T07:33:06;100394.22;;;12.33;23.60
59487;BME280;45298;54.918;73.504;2023-04-29T07:35:35;100400.06;;;12.53;22.87
59487;BME280;45298;54.918;73.504;2023-04-29T07:38:05;100383.84;;;12.70;23.17
59487;BME280;45298;54.918;73.504;2023-04-29T07:40:33;100336.63;;;12.47;22.36
59487;BME280;45298;54.918;73.504;2023-04-29T07:43:02;100404.63;;;12.51;22.70
59487;BME280;45298;54.918;73.504;2023-04-29T07:45:34;100408.47;;;12.32;23.09
59487;BME280;45298;54.918;73.504;2023-04-29T07:48:04;100397.53;;;12.37;23.22
59487;BME280;45298;54.918;73.504;2023-04-29T07:50:34;100403.44;;;12.42;23.09
59487;BME280;45298;54.918;73.504;2023-04-29T07:53:06;100396.59;;;12.38;22.37
59487;BME280;45298;54.918;73.504;2023-04-29T07:55:39;100398.88;;;12.72;23.22
59487;BME280;45298;54.918;73.504;2023-04-29T07:58:08;100384.34;;;12.90;22.67
59487;BME280;45298;54.918;73.504;2023-04-29T08:00:37;100376.03;;;12.82;23.41
59487;BME280;45298;54.918;73.504;2023-04-29T08:03:06;100384.75;;;13.11;23.77
59487;BME280;45298;54.918;73.504;2023-04-29T08:05:35;100366.97;;;13.38;23.06
59487;BME280;45298;54.918;73.504;2023-04-29T08:08:06;100360.06;;;13.74;22.76
59487;BME280;45298;54.918;73.504;2023-04-29T08:10:37;100349.63;;;13.84;22.22
59487;BME280;45298;54.918;73.504;2023-04-29T08:13:08;100334.50;;;13.58;22.66
59487;BME280;45298;54.918;73.504;2023-04-29T08:15:37;100346.66;;;13.63;22.37
59487;BME280;45298;54.918;73.504;2023-04-29T08:18:06;100349.53;;;13.59;22.49
59487;BME280;45298;54.918;73.504;2023-04-29T08:20:34;100364.78;;;13.57;22.87
59487;BME280;45298;54.918;73.504;2023-04-29T08:23:03;100340.44;;;13.23;22.47
59487;BME280;45298;54.918;73.504;2023-04-29T08:25:32;100366.06;;;13.52;22.29
59487;BME280;45298;54.918;73.504;2023-04-29T08:28:01;100352.94;;;13.62;22.25
59487;BME280;45298;54.918;73.504;2023-04-29T08:30:30;100356.66;;;13.72;22.29
59487;BME280;45298;54.918;73.504;2023-04-29T08:32:58;100357.41;;;13.87;22.47
59487;BME280;45298;54.918;73.504;2023-04-29T08:35:27;100375.91;;;14.14;22.59
59487;BME280;45298;54.918;73.504;2023-04-29T08:37:58;100344.34;;;13.95;21.92
59487;BME280;45298;54.918;73.504;2023-04-29T08:40:28;100335.34;;;13.59;22.29
59487;BME280;45298;54.918;73.504;2023-04-29T08:42:57;100340.91;;;13.43;21.84
59487;BME280;45298;54.918;73.504;2023-04-29T08:45:27;100354.00;;;13.46;21.69
59487;BME280;45298;54.918;73.504;2023-04-29T08:47:57;100340.25;;;13.52;22.50
59487;BME280;45298;54.918;73.504;2023-04-29T08:50:30;100323.09;;;13.56;22.14
59487;BME280;45298;54.918;73.504;2023-04-29T08:52:59;100339.59;;;13.74;22.50
59487;BME280;45298;54.918;73.504;2023-04-29T08:55:29;100339.16;;;13.94;22.65
59487;BME280;45298;54.918;73.504;2023-04-29T08:57:59;100335.84;;;13.90;22.07
59487;BME280;45298;54.918;73.504;2023-04-29T09:00:31;100347.00;;;14.08;22.37
59487;BME280;45298;54.918;73.504;2023-04-29T09:03:03;100343.88;;;14.27;21.64
59487;BME280;45298;54.918;73.504;2023-04-29T09:05:40;100350.25;;;14.25;21.81
59487;BME280;45298;54.918;73.504;2023-04-29T09:08:11;100333.84;;;14.18;22.18
59487;BME280;45298;54.918;73.504;2023-04-29T09:10:43;100333.84;;;14.18;22.01
59487;BME280;45298;54.918;73.504;2023-04-29T09:13:24;100346.06;;;14.33;21.32
59487;BME280;45298;54.918;73.504;2023-04-29T09:15:53;100340.41;;;14.38;21.84
59487;BME280;45298;54.918;73.504;2023-04-29T09:18:48;100348.88;;;14.19;21.80
59487;BME280;45298;54.918;73.504;2023-04-29T09:23:54;100342.63;;;14.07;22.76
59487;BME280;45298;54.918;73.504;2023-04-29T09:26:24;100344.25;;;13.97;22.45
59487;BME280;45298;54.918;73.504;2023-04-29T09:29:12;100345.31;;;13.94;22.62
59487;BME280;45298;54.918;73.504;2023-04-29T09:31:44;100314.69;;;13.63;22.76
59487;BME280;45298;54.918;73.504;2023-04-29T09:34:14;100312.00;;;13.63;22.85
59487;BME280;45298;54.918;73.504;2023-04-29T09:36:50;100300.34;;;13.77;22.95
59487;BME280;45298;54.918;73.504;2023-04-29T09:39:24;100323.56;;;13.87;22.47
59487;BME280;45298;54.918;73.504;2023-04-29T09:44:25;100336.50;;;13.55;22.12
59487;BME280;45298;54.918;73.504;2023-04-29T09:52:08;100327.88;;;13.51;22.87
59487;BME280;45298;54.918;73.504;2023-04-29T09:54:39;100324.47;;;13.62;23.35
59487;BME280;45298;54.918;73.504;2023-04-29T09:57:11;100312.72;;;13.65;22.90
59487;BME280;45298;54.918;73.504;2023-04-29T09:59:41;100291.13;;;13.56;22.51
59487;BME280;45298;54.918;73.504;2023-04-29T10:02:15;100307.94;;;13.44;22.38
59487;BME280;45298;54.918;73.504;2023-04-29T10:04:52;100299.28;;;13.27;22.31
59487;BME280;45298;54.918;73.504;2023-04-29T10:07:26;100297.84;;;13.23;22.79
59487;BME280;45298;54.918;73.504;2023-04-29T10:09:55;100295.16;;;13.10;23.12
59487;BME280;45298;54.918;73.504;2023-04-29T10:12:25;100309.41;;;13.35;22.55
59487;BME280;45298;54.918;73.504;2023-04-29T10:17:43;100305.38;;;13.29;22.95
59487;BME280;45298;54.918;73.504;2023-04-29T10:20:16;100289.91;;;13.09;22.98
59487;BME280;45298;54.918;73.504;2023-04-29T10:22:51;100293.22;;;12.99;22.49
59487;BME280;45298;54.918;73.504;2023-04-29T10:25:23;100278.06;;;12.87;23.27
59487;BME280;45298;54.918;73.504;2023-04-29T10:27:54;100288.09;;;12.96;22.93
59487;BME280;45298;54.918;73.504;2023-04-29T10:30:24;100296.09;;;12.96;23.02
59487;BME280;45298;54.918;73.504;2023-04-29T10:32:53;100298.63;;;12.85;23.84
59487;BME280;45298;54.918;73.504;2023-04-29T10:35:28;100277.75;;;12.79;23.69
59487;BME280;45298;54.918;73.504;2023-04-29T10:37:59;100281.38;;;12.78;23.65
59487;BME280;45298;54.918;73.504;2023-04-29T10:40:47;100290.09;;;12.80;23.21
59487;BME280;45298;54.918;73.504;2023-04-29T10:43:22;100282.66;;;12.72;23.05
59487;BME280;45298;54.918;73.504;2023-04-29T10:46:16;100296.47;;;12.64;23.46
59487;BME280;45298;54.918;73.504;2023-04-29T10:48:50;100276.84;;;12.52;23.84
59487;BME280;45298;54.918;73.504;2023-04-29T10:51:29;100289.72;;;12.59;23.29
59487;BME280;45298;54.918;73.504;2023-04-29T10:54:05;100297.47;;;12.49;23.60
59487;BME280;45298;54.918;73.504;2023-04-29T10:56:42;100305.06;;;12.55;24.28
59487;BME280;45298;54.918;73.504;2023-04-29T10:59:14;100311.22;;;12.55;23.34
59487;BME280;45298;54.918;73.504;2023-04-29T11:01:51;100284.22;;;12.34;23.59
59487;BME280;45298;54.918;73.504;2023-04-29T11:04:21;100304.28;;;12.53;23.78
59487;BME280;45298;54.918;73.504;2023-04-29T11:06:55;100297.06;;;12.55;24.33
59487;BME280;45298;54.918;73.504;2023-04-29T11:09:28;100291.19;;;12.50;23.96
59487;BME280;45298;54.918;73.504;2023-04-29T11:12:01;100301.44;;;12.56;23.74
59487;BME280;45298;54.918;73.504;2023-04-29T11:14:38;100280.75;;;12.47;24.01
59487;BME280;45298;54.918;73.504;2023-04-29T11:17:11;100286.63;;;12.52;24.71
59487;BME280;45298;54.918;73.504;2023-04-29T11:19:42;100294.00;;;12.61;23.93
59487;BME280;45298;54.918;73.504;2023-04-29T11:25:00;100289.41;;;12.50;24.45
59487;BME280;45298;54.918;73.504;2023-04-29T11:27:31;100277.19;;;12.33;24.60
59487;BME280;45298;54.918;73.504;2023-04-29T11:30:02;100282.22;;;12.11;24.70
59487;BME280;45298;54.918;73.504;2023-04-29T11:32:39;100286.13;;;12.05;24.16
59487;BME280;45298;54.918;73.504;2023-04-29T11:35:14;100294.09;;;12.05;24.58
59487;BME280;45298;54.918;73.504;2023-04-29T11:37:44;100291.44;;;11.90;24.62
59487;BME280;45298;54.918;73.504;2023-04-29T11:40:14;100293.81;;;11.95;25.16
59487;BME280;45298;54.918;73.504;2023-04-29T11:42:46;100298.28;;;11.94;25.54
59487;BME280;45298;54.918;73.504;2023-04-29T11:45:18;100309.19;;;11.90;24.98
59487;BME280;45298;54.918;73.504;2023-04-29T11:47:48;100294.19;;;11.89;25.59
59487;BME280;45298;54.918;73.504;2023-04-29T11:50:20;100277.63;;;11.71;25.34
59487;BME280;45298;54.918;73.504;2023-04-29T11:52:50;100289.50;;;11.65;25.22
59487;BME280;45298;54.918;73.504;2023-04-29T11:55:19;100290.16;;;11.54;26.12
59487;BME280;45298;54.918;73.504;2023-04-29T11:57:49;100306.94;;;11.55;25.66
59487;BME280;45298;54.918;73.504;2023-04-29T12:00:19;100293.28;;;11.32;25.50
59487;BME280;45298;54.918;73.504;2023-04-29T12:02:52;100305.53;;;11.34;25.54
59487;BME280;45298;54.918;73.504;2023-04-29T12:05:24;100292.31;;;11.18;25.39
59487;BME280;45298;54.918;73.504;2023-04-29T12:07:54;100284.06;;;11.09;26.05
59487;BME280;45298;54.918;73.504;2023-04-29T12:10:23;100307.31;;;11.19;25.93
59487;BME280;45298;54.918;73.504;2023-04-29T12:12:51;100250.53;;;10.77;25.40
59487;BME280;45298;54.918;73.504;2023-04-29T12:15:21;100311.66;;;11.06;25.69
59487;BME280;45298;54.918;73.504;2023-04-29T12:17:50;100318.69;;;11.07;25.78
59487;BME280;45298;54.918;73.504;2023-04-29T12:20:19;100326.41;;;10.96;25.94
59487;BME280;45298;54.918;73.504;2023-04-29T12:22:49;100319.75;;;10.88;26.16
59487;BME280;45298;54.918;73.504;2023-04-29T12:25:18;100301.56;;;10.82;26.41
59487;BME280;45298;54.918;73.504;2023-04-29T12:27:49;100238.34;;;10.44;26.42
59487;BME280;45298;54.918;73.504;2023-04-29T12:30:19;100185.00;;;10.18;26.53
59487;BME280;45298;54.918;73.504;2023-04-29T12:32:51;100319.38;;;10.95;26.47
59487;BME280;45298;54.918;73.504;2023-04-29T12:35:20;100323.75;;;10.96;26.27
59487;BME280;45298;54.918;73.504;2023-04-29T12:37:50;100309.69;;;10.79;25.90
59487;BME280;45298;54.918;73.504;2023-04-29T12:40:19;100320.66;;;10.73;26.15
59487;BME280;45298;54.918;73.504;2023-04-29T12:42:49;100293.47;;;10.53;26.40
59487;BME280;45298;54.918;73.504;2023-04-29T12:45:38;100308.22;;;10.59;26.85
59487;BME280;45298;54.918;73.504;2023-04-29T12:48:08;100321.88;;;10.51;27.24
59487;BME280;45298;54.918;73.504;2023-04-29T12:50:52;100313.84;;;10.37;27.21
59487;BME280;45298;54.918;73.504;2023-04-29T12:53:21;100314.78;;;10.36;27.29
59487;BME280;45298;54.918;73.504;2023-04-29T12:55:50;100296.94;;;10.23;27.66
59487;BME280;45298;54.918;73.504;2023-04-29T12:58:20;100303.34;;;10.19;27.33
59487;BME280;45298;54.918;73.504;2023-04-29T13:00:50;100294.63;;;10.17;27.68
59487;BME280;45298;54.918;73.504;2023-04-29T13:03:18;100325.16;;;10.24;28.19
59487;BME280;45298;54.918;73.504;2023-04-29T13:05:49;100314.28;;;10.13;27.91
59487;BME280;45298;54.918;73.504;2023-04-29T13:08:21;100310.97;;;10.09;28.20
59487;BME280;45298;54.918;73.504;2023-04-29T13:10:50;100300.00;;;10.00;28.66
59487;BME280;45298;54.918;73.504;2023-04-29T13:13:19;100296.56;;;9.81;28.50
59487;BME280;45298;54.918;73.504;2023-04-29T13:15:49;100297.25;;;9.69;28.58
59487;BME280;45298;54.918;73.504;2023-04-29T13:18:18;100315.47;;;9.75;28.90
59487;BME280;45298;54.918;73.504;2023-04-29T13:20:48;100300.16;;;9.64;29.21
59487;BME280;45298;54.918;73.504;2023-04-29T13:23:22;100289.81;;;9.60;29.16
59487;BME280;45298;54.918;73.504;2023-04-29T13:25:51;100317.59;;;9.68;29.99
59487;BME280;45298;54.918;73.504;2023-04-29T13:28:20;100302.28;;;9.58;29.62
59487;BME280;45298;54.918;73.504;2023-04-29T13:30:50;100319.63;;;9.63;29.63